Boughton, United Kingdom
Current Conditions -  °F | °C
As of 10:50 AM on Thursday 27 Nov 2014 (Local Time) from EGCN Reporting Station
Moderate Fog Moderate Fog  
Wind Chill: 46°   Ceiling: 100
Heat Index: 46°   Visibility: 0.18mi
Dew Point: 46°   Wind: 2mph
Humidity: 100%   Direction: 30°NNE
Pressure: 29.62"   Gusts: NA
Location:  53.2°N, 0.98°W
Report Text: EGCN 271050Z 03002KT 0300 R20/0550 FG OVC001 08/08 Q1003
Loading
Personal Weather Stations






























Interactive Weather Map New forecast layout! Learn more

10-Day Weather Forecast

Advertisements
Track Severe Weather on mobile